MST,Max TemperatureF,Mean TemperatureF,Min TemperatureF,Max Dew PointF,MeanDew PointF,Min DewpointF,Max Humidity, Mean Humidity, Min Humidity, Max Sea Level PressureIn, Mean Sea Level PressureIn, Min Sea Level PressureIn, Max VisibilityMiles, Mean VisibilityMiles, Min VisibilityMiles, Max Wind SpeedMPH, Mean Wind SpeedMPH, Max Gust SpeedMPH,PrecipitationIn, CloudCover, Events, WindDirDegrees
2013-11-1,53,42,30,35,29,21,79,54,29,30.24,30.08,29.84,10,10,10,35,16,43,0.00,4,,297
2013-11-2,62,43,24,32,27,21,88,58,27,30.24,30.01,29.61,10,10,10,33,12,44,0.00,1,,196
2013-11-3,60,47,33,36,31,24,82,57,32,29.88,29.68,29.56,10,10,6,20,6,24,0.03,2,Rain,339
2013-11-4,46,38,29,34,28,21,92,66,40,30.15,30.06,29.89,10,10,5,20,6,25,0.01,4,Rain,280
2013-11-5,35,23,11,34,28,11,100,93,85,30.29,30.13,30.03,10,5,0,15,7,20,0.19,7,Fog-Snow,23
2013-11-6,42,26,9,34,23,7,92,78,64,30.44,30.33,30.26,10,10,10,16,6,18,0.00,3,,247
2013-11-7,50,39,27,38,31,24,92,73,53,30.47,30.28,29.85,10,10,10,17,8,24,0.00,2,,192
2013-11-8,57,44,31,36,30,26,78,57,35,30.06,29.84,29.68,10,10,10,32,14,41,0.00,0,,267
2013-11-9,54,41,27,32,28,25,92,67,41,30.39,30.26,30.08,10,10,10,12,5,15,0.00,4,,304
2013-11-10,63,45,26,36,31,24,92,63,34,30.33,30.21,30.09,10,10,10,18,6,23,0.00,0,,243
2013-11-11,34,26,18,30,21,16,92,80,68,30.82,30.57,30.21,10,10,5,21,7,25,0.00,7,,34
2013-11-12,58,37,15,35,27,15,92,68,43,30.80,30.58,30.27,10,10,9,14,6,17,0.00,0,,227
2013-11-13,63,46,28,36,31,24,85,56,27,30.24,30.10,29.97,10,9,1,15,5,20,0.00,1,,267
2013-11-14,55,42,29,41,35,28,100,73,45,30.11,29.97,29.80,10,10,2,13,5,17,0.05,2,Rain,259
2013-11-15,59,43,27,36,31,26,100,66,31,29.75,29.59,29.41,10,10,10,25,6,32,0.00,1,,231
2013-11-16,52,37,22,28,24,19,88,59,30,29.47,29.41,29.33,10,10,10,23,6,30,0.00,1,,256
2013-11-17,47,34,21,28,20,13,85,56,27,30.14,29.87,29.46,10,10,10,36,13,51,0.00,1,,277
2013-11-18,58,38,18,28,22,15,84,56,28,30.23,30.12,29.97,10,10,10,12,3,13,0.00,0,,247
2013-11-19,66,45,23,32,26,21,88,57,25,29.94,29.74,29.61,10,9,2,21,9,26,0.00,0,,239
2013-11-20,53,34,15,36,25,10,92,71,50,30.38,29.98,29.73,10,9,1,29,12,38,T,4,Snow,2
2013-11-21,17,6,-5,10,7,-7,95,84,73,30.87,30.54,30.28,10,3,0,22,10,28,T,7,Fog-Snow,22
2013-11-22,29,10,-9,12,0,-11,90,70,50,30.87,30.82,30.75,10,10,10,13,7,18,0.00,0,,249
2013-11-23,35,18,1,16,8,-2,95,71,47,30.90,30.75,30.50,10,10,10,13,4,14,0.00,0,,223
2013-11-24,39,26,13,25,18,10,92,73,54,30.46,30.22,30.07,10,9,7,18,7,22,0.00,0,,220
2013-11-25,43,32,21,29,25,20,92,73,54,30.41,30.33,30.18,10,10,9,14,4,16,0.00,4,,266
2013-11-26,35,27,18,24,21,16,91,76,61,30.57,30.46,30.34,10,10,10,14,2,17,0.00,2,,29
2013-11-27,56,37,18,30,24,15,92,62,32,30.30,30.16,30.01,10,10,10,25,7,30,0.00,0,,261
2013-11-28,44,31,17,26,22,15,92,69,45,30.40,30.30,30.15,10,10,10,17,5,21,0.00,0,,168
2013-11-29,58,41,23,30,25,21,88,59,30,30.18,30.14,30.07,10,10,10,17,8,23,0.00,0,,249
2013-11-30,53,37,21,28,25,20,92,65,38,30.24,30.20,30.14,10,10,10,14,5,16,0.00,1,,238